Time;durP1;ratioP1;P1;durP2;ratioP2;P2;SDS_P1;SDS_P2;PMS_P1;PMS_P2;Temp;Humidity;BMP_temperature;BMP_pressure;BME280_temperature;BME280_humidity;BME280_pressure;Samples;Min_cycle;Max_cycle;Signal;HPM_P1;HPM_P2
2024/01/15 00:01:58;;;;;;;12.57;3.92;;;1.10;99.90;;;;;;5072942;28;20518;-65
2024/01/15 00:04:24;;;;;;;14.77;4.50;;;1.10;99.90;;;;;;5073845;28;20475;-65
2024/01/15 00:06:50;;;;;;;16.33;4.33;;;1.10;99.90;;;;;;5068765;28;20411;-65
2024/01/15 00:09:16;;;;;;;15.20;4.25;;;1.10;99.90;;;;;;5066633;28;20400;-65
2024/01/15 00:11:42;;;;;;;14.98;4.40;;;1.10;99.90;;;;;;5066836;28;20395;-65
2024/01/15 00:14:08;;;;;;;14.60;4.27;;;1.10;99.90;;;;;;5066759;28;20944;-65
2024/01/15 00:16:34;;;;;;;17.55;4.70;;;1.10;99.90;;;;;;5068034;28;20403;-65
2024/01/15 00:19:00;;;;;;;15.80;4.18;;;1.10;99.90;;;;;;5050317;28;20400;-65
2024/01/15 00:21:27;;;;;;;16.50;4.77;;;1.10;99.90;;;;;;5048507;28;20433;-66
2024/01/15 00:23:53;;;;;;;16.55;4.65;;;1.10;99.90;;;;;;5068114;28;20787;-65
2024/01/15 00:26:19;;;;;;;17.50;4.43;;;1.10;99.90;;;;;;5049588;28;20724;-65
2024/01/15 00:28:45;;;;;;;12.77;3.97;;;1.10;99.90;;;;;;5077264;28;20504;-65
2024/01/15 00:31:10;;;;;;;16.50;4.60;;;1.10;99.90;;;;;;5077836;28;20441;-65
2024/01/15 00:33:36;;;;;;;15.95;4.60;;;1.10;99.90;;;;;;5072697;28;20423;-65
2024/01/15 00:36:03;;;;;;;16.42;4.20;;;1.10;99.90;;;;;;5077872;28;20407;-65
2024/01/15 00:38:28;;;;;;;14.47;4.23;;;1.00;99.90;;;;;;5078243;28;20442;-65
2024/01/15 00:40:54;;;;;;;14.30;4.43;;;1.10;99.90;;;;;;5075553;28;20521;-65
2024/01/15 00:43:21;;;;;;;14.57;5.03;;;1.10;99.90;;;;;;5076445;28;20394;-65
2024/01/15 00:45:46;;;;;;;16.67;4.00;;;1.20;99.90;;;;;;5066713;28;20427;-65
2024/01/15 00:48:12;;;;;;;16.00;4.50;;;1.20;99.90;;;;;;5072183;28;20409;-65
2024/01/15 00:50:38;;;;;;;18.93;4.30;;;1.30;99.90;;;;;;5062966;28;20779;-65
2024/01/15 00:53:03;;;;;;;16.08;4.32;;;1.30;99.90;;;;;;5077695;28;20413;-65
2024/01/15 00:55:29;;;;;;;15.05;4.63;;;1.40;99.90;;;;;;5071495;28;20433;-65
2024/01/15 00:57:55;;;;;;;17.13;4.32;;;1.40;99.90;;;;;;5072137;28;20911;-66
2024/01/15 01:00:21;;;;;;;13.40;4.30;;;1.40;99.90;;;;;;5077047;28;20425;-65
2024/01/15 01:02:47;;;;;;;13.73;3.90;;;1.40;99.90;;;;;;5078731;28;20414;-64
2024/01/15 01:05:13;;;;;;;15.53;4.20;;;1.50;99.90;;;;;;5073238;28;20886;-65
2024/01/15 01:07:39;;;;;;;14.70;4.23;;;1.50;99.90;;;;;;5058282;28;20410;-65
2024/01/15 01:10:05;;;;;;;15.23;4.45;;;1.60;99.90;;;;;;5072116;28;20451;-65
2024/01/15 01:12:30;;;;;;;12.85;4.38;;;1.60;99.90;;;;;;5075066;28;20418;-65
2024/01/15 01:14:56;;;;;;;16.13;4.13;;;1.60;99.90;;;;;;5075382;28;20504;-65
2024/01/15 01:17:22;;;;;;;15.20;4.13;;;1.60;99.90;;;;;;5078718;28;20397;-65
2024/01/15 01:19:49;;;;;;;18.75;4.30;;;1.60;99.90;;;;;;5077607;28;20459;-65
2024/01/15 01:22:15;;;;;;;16.67;4.22;;;1.60;99.90;;;;;;5076281;28;20423;-65
2024/01/15 01:24:40;;;;;;;14.32;4.10;;;1.60;99.90;;;;;;5051475;28;20411;-65
2024/01/15 01:27:06;;;;;;;14.97;4.27;;;1.60;99.90;;;;;;5072002;28;20445;-65
2024/01/15 01:29:32;;;;;;;15.38;4.20;;;1.60;99.90;;;;;;5067273;28;20417;-65
2024/01/15 01:31:58;;;;;;;16.02;4.18;;;1.60;99.90;;;;;;5062177;28;20427;-65
2024/01/15 01:34:24;;;;;;;14.10;4.28;;;1.60;99.90;;;;;;5060992;28;21073;-65
2024/01/15 01:36:50;;;;;;;16.83;4.20;;;1.60;99.90;;;;;;5051131;28;20424;-65
2024/01/15 01:39:15;;;;;;;16.70;4.30;;;1.60;99.90;;;;;;5059301;28;20418;-65
2024/01/15 01:41:41;;;;;;;15.73;4.40;;;1.60;99.90;;;;;;5070745;28;20429;-65
2024/01/15 01:44:07;;;;;;;16.27;4.43;;;1.60;99.90;;;;;;5076594;28;20439;-65
2024/01/15 01:46:39;;;;;;;17.52;4.53;;;1.60;99.90;;;;;;5058863;28;20542;-65
2024/01/15 01:49:06;;;;;;;14.27;3.88;;;1.60;99.90;;;;;;5069276;28;20411;-65
2024/01/15 01:51:34;;;;;;;12.98;4.32;;;1.60;99.90;;;;;;5077964;28;20430;-65
2024/01/15 01:54:00;;;;;;;13.93;4.30;;;1.60;99.90;;;;;;5089251;28;20417;-65
2024/01/15 01:56:26;;;;;;;18.95;4.57;;;1.60;99.90;;;;;;5081298;28;20890;-65
2024/01/15 01:58:53;;;;;;;16.25;4.60;;;1.60;99.90;;;;;;5082841;28;20757;-65
2024/01/15 02:01:19;;;;;;;13.27;3.92;;;1.60;99.90;;;;;;5056736;28;20429;-65
2024/01/15 02:03:45;;;;;;;14.83;4.43;;;1.60;99.90;;;;;;5069383;28;20882;-65
2024/01/15 02:06:11;;;;;;;15.23;4.30;;;1.50;99.90;;;;;;5052605;28;20423;-65
2024/01/15 02:08:37;;;;;;;18.80;4.40;;;1.50;99.90;;;;;;5035859;28;20399;-65
2024/01/15 02:11:03;;;;;;;14.93;3.78;;;1.50;99.90;;;;;;5070477;28;20400;-65
2024/01/15 02:13:29;;;;;;;13.82;3.67;;;1.40;99.90;;;;;;5070781;28;20396;-65
2024/01/15 02:15:55;;;;;;;12.07;3.50;;;1.40;99.90;;;;;;5069755;28;20868;-65
2024/01/15 02:18:21;;;;;;;13.73;3.55;;;1.30;99.90;;;;;;5069521;28;20494;-65
2024/01/15 02:20:46;;;;;;;10.47;3.00;;;1.30;99.90;;;;;;5069617;28;20916;-65
2024/01/15 02:23:15;;;;;;;7.20;2.50;;;1.30;99.90;;;;;;5070528;28;20396;-65
2024/01/15 02:25:46;;;;;;;9.67;2.63;;;1.30;99.90;;;;;;5052104;28;20457;-65
2024/01/15 02:28:17;;;;;;;8.55;2.35;;;1.20;99.90;;;;;;5068559;28;20411;-65
2024/01/15 02:30:43;;;;;;;5.55;2.03;;;1.30;99.90;;;;;;5067451;28;20399;-65
2024/01/15 02:33:10;;;;;;;6.17;1.80;;;1.30;99.90;;;;;;5068719;28;20490;-65
2024/01/15 02:35:36;;;;;;;6.20;2.10;;;1.30;99.90;;;;;;5075061;28;20807;-65
2024/01/15 02:38:03;;;;;;;5.68;2.10;;;1.20;99.90;;;;;;5075723;28;20417;-64
2024/01/15 02:40:29;;;;;;;6.05;2.10;;;1.20;99.90;;;;;;5076503;28;20425;-65
2024/01/15 02:42:55;;;;;;;5.82;2.42;;;1.20;99.90;;;;;;5076317;28;20427;-65
2024/01/15 02:45:22;;;;;;;6.33;2.30;;;1.10;99.90;;;;;;5066026;28;20429;-65
2024/01/15 02:47:47;;;;;;;10.40;2.50;;;1.10;99.90;;;;;;5079375;28;20402;-65
2024/01/15 02:50:13;;;;;;;8.67;2.83;;;1.20;99.90;;;;;;5071712;28;20412;-65
2024/01/15 02:52:39;;;;;;;11.20;3.03;;;1.20;99.90;;;;;;5059375;28;20404;-65
2024/01/15 02:55:05;;;;;;;11.00;3.10;;;1.10;99.90;;;;;;5073588;28;20780;-65
2024/01/15 02:57:31;;;;;;;11.10;3.30;;;1.10;99.90;;;;;;5076963;28;20466;-65
2024/01/15 02:59:57;;;;;;;12.87;3.23;;;1.10;99.90;;;;;;5079123;28;20427;-65
2024/01/15 03:02:22;;;;;;;10.85;3.25;;;1.10;99.90;;;;;;5077351;28;20414;-65
2024/01/15 03:04:48;;;;;;;10.20;3.05;;;1.20;99.90;;;;;;5080940;28;20414;-65
2024/01/15 03:07:14;;;;;;;12.90;3.40;;;1.20;99.90;;;;;;5061395;28;20411;-65
2024/01/15 03:09:39;;;;;;;10.60;3.40;;;1.20;99.90;;;;;;5074386;28;21058;-65
2024/01/15 03:12:06;;;;;;;14.07;3.77;;;1.30;99.90;;;;;;5072377;28;20477;-65
2024/01/15 03:14:32;;;;;;;13.90;3.80;;;1.20;99.90;;;;;;5082935;28;20416;-65
2024/01/15 03:16:57;;;;;;;11.17;3.63;;;1.30;99.90;;;;;;5072973;28;20427;-65
2024/01/15 03:19:23;;;;;;;11.47;3.23;;;1.30;99.90;;;;;;5055400;28;20444;-65
2024/01/15 03:21:49;;;;;;;12.93;3.45;;;1.40;99.90;;;;;;5075866;28;20430;-65
2024/01/15 03:24:14;;;;;;;12.57;3.25;;;1.40;99.90;;;;;;5057966;28;20452;-65
2024/01/15 03:26:40;;;;;;;10.23;3.57;;;1.40;99.90;;;;;;5058983;28;20413;-65
2024/01/15 03:29:07;;;;;;;10.53;2.93;;;1.40;99.90;;;;;;5063778;28;20485;-65
2024/01/15 03:31:33;;;;;;;10.45;3.03;;;1.40;99.90;;;;;;5061225;28;20402;-65
2024/01/15 03:33:58;;;;;;;10.70;3.03;;;1.40;99.90;;;;;;5078723;28;20431;-65
2024/01/15 03:36:24;;;;;;;10.90;2.72;;;1.40;99.90;;;;;;5080731;28;20923;-65
2024/01/15 03:38:50;;;;;;;10.70;2.75;;;1.30;99.90;;;;;;5038370;28;20437;-65
2024/01/15 03:41:15;;;;;;;10.03;3.00;;;1.30;99.90;;;;;;5083254;28;20771;-65
2024/01/15 03:43:41;;;;;;;11.40;3.47;;;1.30;99.90;;;;;;5082351;28;20398;-65
2024/01/15 03:46:07;;;;;;;11.65;3.17;;;1.30;99.90;;;;;;5081356;28;20392;-65
2024/01/15 03:48:33;;;;;;;14.60;3.47;;;1.30;99.90;;;;;;5074717;28;20396;-65
2024/01/15 03:50:58;;;;;;;13.50;3.50;;;1.30;99.90;;;;;;5064641;28;20929;-65
2024/01/15 03:53:24;;;;;;;13.23;3.47;;;1.30;99.90;;;;;;5044842;28;20445;-65
2024/01/15 03:55:50;;;;;;;14.40;3.80;;;1.30;99.90;;;;;;5082175;28;20902;-66
2024/01/15 03:58:16;;;;;;;12.23;3.42;;;1.30;99.90;;;;;;5073636;28;20400;-65
2024/01/15 04:00:42;;;;;;;13.95;3.83;;;1.30;99.90;;;;;;5078346;28;20447;-65
2024/01/15 04:03:08;;;;;;;12.45;3.65;;;1.30;99.90;;;;;;5079354;28;20747;-65
2024/01/15 04:05:34;;;;;;;12.53;3.87;;;1.30;99.90;;;;;;5076946;28;20469;-65
2024/01/15 04:07:59;;;;;;;11.00;3.50;;;1.30;99.90;;;;;;5061322;28;20839;-65
2024/01/15 04:10:25;;;;;;;12.43;3.45;;;1.40;99.90;;;;;;5080349;28;20396;-65
2024/01/15 04:12:51;;;;;;;10.93;3.58;;;1.40;99.90;;;;;;5079516;28;20394;-65
2024/01/15 04:15:17;;;;;;;13.00;3.67;;;1.40;99.90;;;;;;5077184;28;20425;-65
2024/01/15 04:17:42;;;;;;;12.00;3.50;;;1.40;99.90;;;;;;5076489;28;20398;-65
2024/01/15 04:20:08;;;;;;;11.60;3.73;;;1.40;99.90;;;;;;5074981;28;20435;-65
2024/01/15 04:22:35;;;;;;;9.67;3.00;;;1.50;99.90;;;;;;5076902;28;20398;-65
2024/01/15 04:25:02;;;;;;;10.95;3.22;;;1.50;99.90;;;;;;5075306;28;20439;-65
2024/01/15 04:27:27;;;;;;;11.35;3.08;;;1.50;99.90;;;;;;5081069;28;20497;-65
2024/01/15 04:29:53;;;;;;;9.95;3.08;;;1.50;99.90;;;;;;5081545;28;20947;-64
2024/01/15 04:32:19;;;;;;;9.00;3.13;;;1.50;99.90;;;;;;5073320;28;20421;-66
2024/01/15 04:34:45;;;;;;;11.17;3.23;;;1.50;99.90;;;;;;5079439;28;20479;-65
2024/01/15 04:37:11;;;;;;;10.00;3.10;;;1.50;99.90;;;;;;5077950;28;20418;-65
2024/01/15 04:39:37;;;;;;;9.70;2.87;;;1.50;99.90;;;;;;5082962;28;20447;-65
2024/01/15 04:42:03;;;;;;;12.87;3.40;;;1.50;99.90;;;;;;5075402;28;20431;-65
2024/01/15 04:44:29;;;;;;;10.20;3.10;;;1.50;99.90;;;;;;5076759;28;20394;-65
2024/01/15 04:46:54;;;;;;;12.97;3.60;;;1.50;99.90;;;;;;5073695;28;20440;-65
2024/01/15 04:49:20;;;;;;;9.90;3.70;;;1.50;99.90;;;;;;5060497;28;20904;-64
2024/01/15 04:51:46;;;;;;;10.77;3.22;;;1.50;99.90;;;;;;5073179;28;20408;-65
2024/01/15 04:54:12;;;;;;;12.05;3.63;;;1.50;99.90;;;;;;5082730;28;20397;-65
2024/01/15 04:56:38;;;;;;;12.15;3.50;;;1.50;99.90;;;;;;5076099;28;20404;-65
2024/01/15 04:59:04;;;;;;;12.95;3.75;;;1.60;99.90;;;;;;5079937;28;20480;-65
2024/01/15 05:01:33;;;;;;;13.65;3.90;;;1.60;99.90;;;;;;5068445;28;20422;-65
2024/01/15 05:03:59;;;;;;;12.38;4.00;;;1.60;99.90;;;;;;5070719;28;20932;-65
2024/01/15 05:06:25;;;;;;;12.50;4.25;;;1.60;99.90;;;;;;5069737;28;20393;-65
2024/01/15 05:08:50;;;;;;;17.38;4.45;;;1.60;99.90;;;;;;5050694;28;20508;-65
2024/01/15 05:11:16;;;;;;;14.82;4.30;;;1.60;99.90;;;;;;5075421;28;20402;-65
2024/01/15 05:13:42;;;;;;;16.63;4.50;;;1.60;99.90;;;;;;5079260;28;20398;-65
2024/01/15 05:16:07;;;;;;;14.10;4.10;;;1.60;99.90;;;;;;5079122;28;20444;-64
2024/01/15 05:18:33;;;;;;;11.32;3.35;;;1.50;99.90;;;;;;5077231;28;20790;-65
2024/01/15 05:20:59;;;;;;;14.85;3.78;;;1.50;99.90;;;;;;5080348;28;20457;-64
2024/01/15 05:23:25;;;;;;;12.88;3.63;;;1.50;99.90;;;;;;5078138;28;20481;-64
2024/01/15 05:25:50;;;;;;;13.83;3.70;;;1.50;99.90;;;;;;5075952;28;20407;-65
2024/01/15 05:28:16;;;;;;;13.40;3.90;;;1.40;99.90;;;;;;5058082;28;20398;-65
2024/01/15 05:30:42;;;;;;;17.40;3.92;;;1.40;99.90;;;;;;5081478;28;20461;-65
2024/01/15 05:33:08;;;;;;;17.08;4.15;;;1.40;99.90;;;;;;5084066;28;20415;-64
2024/01/15 05:35:34;;;;;;;13.88;4.10;;;1.40;99.90;;;;;;5083664;28;20410;-65
2024/01/15 05:38:01;;;;;;;12.05;3.90;;;1.30;99.90;;;;;;5084554;28;20401;-65
2024/01/15 05:40:26;;;;;;;15.20;4.57;;;1.30;99.90;;;;;;5085367;28;20458;-65
2024/01/15 05:42:52;;;;;;;18.38;4.40;;;1.30;99.90;;;;;;5085939;28;20410;-65
2024/01/15 05:45:18;;;;;;;14.90;4.13;;;1.30;99.90;;;;;;5080026;28;20785;-65
2024/01/15 05:47:43;;;;;;;15.77;4.23;;;1.20;99.90;;;;;;5084939;28;20397;-65
2024/01/15 05:50:10;;;;;;;14.65;4.13;;;1.20;99.90;;;;;;5080492;28;20401;-65
2024/01/15 05:52:36;;;;;;;14.73;3.70;;;1.20;99.90;;;;;;5072440;28;20465;-65
2024/01/15 05:55:02;;;;;;;12.40;3.97;;;1.20;99.90;;;;;;5076726;28;20908;-65
2024/01/15 05:57:28;;;;;;;15.38;3.63;;;1.20;99.90;;;;;;5067977;28;20856;-65
2024/01/15 05:59:54;;;;;;;13.90;3.63;;;1.20;99.90;;;;;;5075759;28;20427;-65
2024/01/15 06:02:20;;;;;;;16.67;3.97;;;1.20;99.90;;;;;;5076623;28;20459;-65
2024/01/15 06:04:46;;;;;;;14.55;3.97;;;1.20;99.90;;;;;;5077250;28;20431;-65
2024/01/15 06:07:11;;;;;;;17.60;4.20;;;1.30;99.90;;;;;;5081648;28;20406;-65
2024/01/15 06:09:38;;;;;;;15.20;3.90;;;1.30;99.90;;;;;;5080584;28;20486;-65
2024/01/15 06:12:04;;;;;;;14.85;4.18;;;1.30;99.90;;;;;;5076205;28;20399;-65
2024/01/15 06:14:30;;;;;;;16.17;4.25;;;1.30;99.90;;;;;;5062236;28;20555;-65
2024/01/15 06:16:56;;;;;;;12.77;4.33;;;1.30;99.90;;;;;;5082884;28;20940;-65
2024/01/15 06:19:21;;;;;;;12.00;3.67;;;1.20;99.90;;;;;;5087123;28;20390;-65
2024/01/15 06:21:47;;;;;;;11.82;3.88;;;1.20;99.90;;;;;;5080341;28;20826;-65
2024/01/15 06:24:13;;;;;;;12.05;3.35;;;1.20;99.90;;;;;;5083319;28;20400;-65
2024/01/15 06:26:39;;;;;;;10.23;3.17;;;1.10;99.90;;;;;;5044747;28;20467;-65
2024/01/15 06:29:05;;;;;;;9.43;2.75;;;1.00;99.90;;;;;;5083647;28;20400;-65
2024/01/15 06:31:30;;;;;;;10.55;3.28;;;1.00;99.90;;;;;;5079049;28;20411;-65
2024/01/15 06:33:56;;;;;;;10.60;3.50;;;1.00;99.90;;;;;;5083321;28;20432;-65
2024/01/15 06:36:22;;;;;;;9.60;3.27;;;0.90;99.90;;;;;;5081936;28;20390;-65
2024/01/15 06:38:47;;;;;;;11.48;3.63;;;0.90;99.90;;;;;;5050409;28;20886;-65
2024/01/15 06:41:13;;;;;;;13.32;4.07;;;0.90;99.90;;;;;;5071078;28;20418;-65
2024/01/15 06:43:39;;;;;;;14.45;4.32;;;0.90;99.90;;;;;;5079191;28;20401;-65
2024/01/15 06:46:05;;;;;;;13.07;4.10;;;0.80;99.90;;;;;;5077679;28;20409;-65
2024/01/15 06:48:30;;;;;;;19.37;4.80;;;0.90;99.90;;;;;;5084763;28;20398;-65
2024/01/15 06:50:56;;;;;;;15.40;4.32;;;0.90;99.90;;;;;;5079005;28;20412;-65
2024/01/15 06:53:22;;;;;;;17.55;4.20;;;0.90;99.90;;;;;;5080355;28;20407;-65
2024/01/15 06:55:49;;;;;;;17.57;4.13;;;0.90;99.90;;;;;;5073531;28;20464;-65
2024/01/15 06:58:14;;;;;;;16.17;4.35;;;0.90;99.90;;;;;;5070868;28;20474;-65
2024/01/15 07:00:40;;;;;;;17.80;4.27;;;0.80;99.90;;;;;;5075459;28;21068;-65
2024/01/15 07:03:07;;;;;;;16.57;4.47;;;0.80;99.90;;;;;;5060946;28;20820;-65
2024/01/15 07:05:32;;;;;;;17.75;4.78;;;0.80;99.90;;;;;;5076904;28;20406;-65
2024/01/15 07:07:58;;;;;;;16.30;4.40;;;0.80;99.90;;;;;;5075625;28;20386;-65
2024/01/15 07:10:24;;;;;;;17.90;4.22;;;0.80;99.90;;;;;;5076724;28;20392;-65
2024/01/15 07:12:50;;;;;;;13.70;4.27;;;0.70;99.90;;;;;;5074884;28;20406;-65
2024/01/15 07:15:16;;;;;;;15.63;4.17;;;0.70;99.90;;;;;;5080437;28;20485;-65
2024/01/15 07:17:42;;;;;;;15.18;4.00;;;0.70;99.90;;;;;;5076848;28;20402;-65
2024/01/15 07:20:09;;;;;;;15.97;4.27;;;0.70;99.90;;;;;;5061585;28;20413;-65
2024/01/15 07:22:38;;;;;;;14.00;3.92;;;0.70;99.90;;;;;;5102673;28;20940;-65
2024/01/15 07:25:04;;;;;;;14.27;4.03;;;0.70;99.90;;;;;;5073889;28;20435;-65
2024/01/15 07:27:31;;;;;;;15.45;4.05;;;0.70;99.90;;;;;;5063210;28;20412;-65
2024/01/15 07:29:58;;;;;;;16.38;4.60;;;0.70;99.90;;;;;;5066654;28;20457;-65
2024/01/15 07:32:24;;;;;;;16.17;3.95;;;0.70;99.90;;;;;;5025503;28;1152047;-65
2024/01/15 07:34:49;;;;;;;13.85;3.88;;;0.70;99.90;;;;;;5067735;28;20400;-65
2024/01/15 07:37:15;;;;;;;13.03;4.07;;;0.80;99.90;;;;;;5064546;28;20402;-65
2024/01/15 07:39:41;;;;;;;17.45;4.15;;;0.70;99.90;;;;;;5033815;28;20411;-65
2024/01/15 07:42:07;;;;;;;15.23;4.22;;;0.80;99.90;;;;;;5049426;28;20473;-65
2024/01/15 07:44:33;;;;;;;14.20;4.50;;;0.80;99.90;;;;;;5051174;28;20399;-65
2024/01/15 07:46:59;;;;;;;12.13;3.70;;;0.80;99.90;;;;;;5070251;28;20384;-65
2024/01/15 07:49:25;;;;;;;12.33;3.90;;;0.80;99.90;;;;;;5070182;28;20410;-65
2024/01/15 07:51:51;;;;;;;12.73;3.90;;;0.80;99.90;;;;;;5051450;28;20411;-65
2024/01/15 07:54:16;;;;;;;13.60;3.97;;;0.80;99.90;;;;;;5069589;28;20453;-65
2024/01/15 07:56:55;;;;;;;14.82;5.25;;;0.80;99.90;;;;;;5069684;28;20395;-65
2024/01/15 07:59:21;;;;;;;15.98;4.85;;;0.80;99.90;;;;;;5065477;28;20412;-65
2024/01/15 08:01:47;;;;;;;14.65;4.10;;;0.80;99.90;;;;;;5066579;28;20432;-65
2024/01/15 08:04:13;;;;;;;12.68;3.88;;;0.80;99.90;;;;;;5065701;28;20423;-65
2024/01/15 08:06:39;;;;;;;12.23;3.50;;;0.70;99.90;;;;;;5069718;28;20399;-65
2024/01/15 08:09:05;;;;;;;13.85;4.22;;;0.70;99.90;;;;;;5035409;28;20457;-65
2024/01/15 08:11:31;;;;;;;14.93;3.92;;;0.70;99.90;;;;;;5052139;28;20399;-65
2024/01/15 08:13:56;;;;;;;14.48;3.90;;;0.70;99.90;;;;;;5068451;28;20445;-65
2024/01/15 08:16:24;;;;;;;15.60;4.05;;;0.70;99.90;;;;;;5069872;28;20392;-65
2024/01/15 08:18:50;;;;;;;14.60;4.97;;;0.70;99.90;;;;;;5069638;28;20403;-65
2024/01/15 08:21:15;;;;;;;12.73;3.83;;;0.80;99.90;;;;;;5050061;28;20423;-65
2024/01/15 08:23:41;;;;;;;14.27;4.18;;;0.90;99.90;;;;;;5067947;28;20392;-65
2024/01/15 08:26:08;;;;;;;15.63;4.00;;;1.00;99.90;;;;;;5069319;28;20825;-65
2024/01/15 08:28:34;;;;;;;14.45;4.03;;;1.10;99.90;;;;;;5069379;28;20765;-65
2024/01/15 08:31:00;;;;;;;13.13;4.30;;;1.00;99.90;;;;;;5066081;28;20408;-65
2024/01/15 08:33:26;;;;;;;14.27;4.15;;;1.00;99.90;;;;;;5052384;28;20455;-65
2024/01/15 08:35:51;;;;;;;17.50;4.47;;;1.00;99.90;;;;;;5059642;28;20403;-65
2024/01/15 08:38:19;;;;;;;14.40;4.23;;;1.10;99.90;;;;;;5058286;28;20770;-65
2024/01/15 08:40:45;;;;;;;15.90;4.10;;;1.10;99.90;;;;;;5068818;28;20459;-65
2024/01/15 08:43:10;;;;;;;14.50;4.30;;;1.10;99.90;;;;;;5067812;28;20448;-65
2024/01/15 08:45:36;;;;;;;17.00;4.55;;;1.10;99.90;;;;;;5069425;28;20395;-65
2024/01/15 08:48:02;;;;;;;13.73;3.77;;;1.20;99.90;;;;;;5062123;28;20450;-65
2024/01/15 08:50:28;;;;;;;10.50;3.67;;;1.20;99.90;;;;;;5061377;28;20415;-65
2024/01/15 08:52:54;;;;;;;16.20;4.10;;;1.30;99.90;;;;;;5061713;28;20864;-65
2024/01/15 08:55:22;;;;;;;11.68;3.85;;;1.30;99.90;;;;;;5067691;28;20403;-65
2024/01/15 08:57:48;;;;;;;14.90;3.70;;;1.40;99.90;;;;;;5068905;28;20423;-65
2024/01/15 09:00:14;;;;;;;13.82;3.95;;;1.40;99.90;;;;;;5068998;28;20394;-65
2024/01/15 09:02:40;;;;;;;10.70;4.00;;;1.50;99.90;;;;;;5068789;28;20419;-65
2024/01/15 09:05:06;;;;;;;12.15;3.67;;;1.90;99.90;;;;;;5069051;28;20414;-66
2024/01/15 09:07:32;;;;;;;13.05;3.70;;;2.50;99.90;;;;;;5067483;28;20423;-65
2024/01/15 09:09:59;;;;;;;14.35;4.30;;;3.20;99.90;;;;;;5046035;28;20400;-65
2024/01/15 09:12:25;;;;;;;14.73;3.78;;;3.60;99.90;;;;;;5056069;28;20424;-65
2024/01/15 09:14:51;;;;;;;12.90;3.70;;;3.70;99.90;;;;;;5060645;28;20413;-65
2024/01/15 09:17:17;;;;;;;14.90;4.03;;;3.80;99.90;;;;;;5072672;28;20431;-65
2024/01/15 09:19:44;;;;;;;11.65;3.95;;;4.20;99.90;;;;;;5070869;28;20898;-65
2024/01/15 09:22:10;;;;;;;14.70;4.38;;;4.50;99.90;;;;;;5070755;28;20683;-65
2024/01/15 09:24:36;;;;;;;11.25;3.92;;;4.80;99.90;;;;;;5073833;28;20395;-65
2024/01/15 09:27:02;;;;;;;12.55;3.70;;;5.20;99.90;;;;;;5072356;28;20890;-65
2024/01/15 09:29:28;;;;;;;12.82;4.20;;;5.50;99.90;;;;;;5075714;28;20773;-65
2024/01/15 09:31:54;;;;;;;13.27;3.67;;;5.60;99.90;;;;;;5070458;28;20406;-66
2024/01/15 09:34:20;;;;;;;13.20;4.28;;;6.00;99.90;;;;;;5038262;28;20421;-65
2024/01/15 09:36:45;;;;;;;14.05;4.35;;;5.70;99.90;;;;;;5072979;28;20914;-65
2024/01/15 09:39:11;;;;;;;12.98;3.92;;;5.20;99.90;;;;;;5069504;28;20913;-65
2024/01/15 09:41:37;;;;;;;14.47;4.07;;;4.70;99.90;;;;;;5074435;28;20434;-65
2024/01/15 09:44:04;;;;;;;14.15;3.97;;;4.20;99.90;;;;;;5070099;28;20918;-65
2024/01/15 09:46:34;;;;;;;11.68;3.88;;;3.60;99.90;;;;;;5072172;28;20416;-65
2024/01/15 09:49:01;;;;;;;14.88;4.35;;;3.20;99.90;;;;;;5072125;28;20518;-65
2024/01/15 09:51:31;;;;;;;13.60;4.38;;;3.00;99.90;;;;;;5055036;28;20417;-65
2024/01/15 09:53:58;;;;;;;14.60;4.40;;;3.00;99.90;;;;;;5074155;28;21537;-64
2024/01/15 09:56:24;;;;;;;12.32;4.20;;;2.90;99.90;;;;;;5073232;28;20440;-65
2024/01/15 09:58:53;;;;;;;12.27;3.88;;;2.90;99.90;;;;;;5055439;28;20394;-65
2024/01/15 10:01:21;;;;;;;13.73;4.30;;;3.00;99.90;;;;;;5055652;28;20414;-65
2024/01/15 10:03:47;;;;;;;14.50;4.10;;;3.10;99.90;;;;;;5074902;28;20390;-65
2024/01/15 10:06:19;;;;;;;14.30;3.70;;;3.10;99.90;;;;;;5072328;28;20409;-65
2024/01/15 10:08:51;;;;;;;12.10;3.90;;;3.00;99.90;;;;;;5072046;28;20488;-64
2024/01/15 10:11:17;;;;;;;13.13;3.92;;;3.00;99.90;;;;;;5074264;28;20858;-65
2024/01/15 10:13:46;;;;;;;12.73;3.88;;;3.00;99.90;;;;;;5068965;28;20426;-65
2024/01/15 10:16:12;;;;;;;15.10;3.80;;;3.10;99.90;;;;;;5078190;28;20824;-65
2024/01/15 10:18:39;;;;;;;12.43;3.75;;;3.10;99.90;;;;;;5075277;28;20378;-65
2024/01/15 10:21:08;;;;;;;13.60;3.80;;;3.30;99.90;;;;;;5077109;28;21123;-65
2024/01/15 10:23:36;;;;;;;11.02;3.78;;;3.40;99.90;;;;;;5074707;28;20859;-65
2024/01/15 10:26:02;;;;;;;10.52;3.50;;;3.60;99.90;;;;;;5074148;28;21421;-65
2024/01/15 10:28:30;;;;;;;12.15;3.33;;;3.50;99.90;;;;;;5071646;28;21020;-65
2024/01/15 10:30:58;;;;;;;11.35;3.58;;;3.20;99.90;;;;;;5070434;28;20394;-65
2024/01/15 10:33:25;;;;;;;10.67;3.33;;;2.90;99.90;;;;;;5054550;28;20525;-65
2024/01/15 10:35:55;;;;;;;13.25;3.75;;;2.70;99.90;;;;;;5071721;28;20903;-64
2024/01/15 10:38:22;;;;;;;11.50;3.42;;;2.80;99.90;;;;;;5071860;28;20434;-65
2024/01/15 10:40:55;;;;;;;13.00;3.47;;;2.80;99.90;;;;;;5055265;28;20985;-65
2024/01/15 10:43:21;;;;;;;12.13;3.60;;;2.90;99.90;;;;;;5073601;28;20919;-65
2024/01/15 10:45:49;;;;;;;9.23;3.35;;;2.90;99.90;;;;;;5037332;28;20413;-65
2024/01/15 10:48:20;;;;;;;12.10;3.33;;;3.00;99.90;;;;;;5067369;28;20453;-64
2024/01/15 10:50:47;;;;;;;13.27;3.50;;;2.90;99.90;;;;;;5049684;28;20425;-64
2024/01/15 10:53:16;;;;;;;11.18;3.20;;;2.80;99.90;;;;;;5075075;28;20500;-64
2024/01/15 10:55:43;;;;;;;10.43;3.30;;;2.90;99.90;;;;;;5054055;28;20409;-64
2024/01/15 10:58:09;;;;;;;8.30;2.80;;;3.00;99.90;;;;;;5052193;28;20421;-64
2024/01/15 11:00:39;;;;;;;8.23;2.92;;;3.20;99.90;;;;;;5068802;28;20425;-64
2024/01/15 11:03:06;;;;;;;10.30;2.83;;;3.20;99.90;;;;;;5068157;28;20394;-65
2024/01/15 11:05:45;;;;;;;10.52;2.70;;;3.10;99.90;;;;;;5085894;28;20500;-65
2024/01/15 11:08:11;;;;;;;9.50;3.03;;;3.00;99.90;;;;;;5068908;28;20401;-65
2024/01/15 11:10:49;;;;;;;6.90;2.70;;;2.90;99.90;;;;;;5055341;28;20418;-65
2024/01/15 11:13:22;;;;;;;9.10;2.80;;;2.90;99.90;;;;;;5071577;28;20390;-65
2024/01/15 11:16:02;;;;;;;9.60;3.17;;;2.80;99.90;;;;;;5066914;28;20407;-65
2024/01/15 11:18:34;;;;;;;9.68;2.92;;;2.70;99.90;;;;;;5066326;28;21348;-65
2024/01/15 11:21:17;;;;;;;10.52;2.95;;;2.60;99.90;;;;;;5076072;28;20422;-65
2024/01/15 11:23:57;;;;;;;10.45;2.80;;;2.60;99.90;;;;;;5076529;28;20448;-65
2024/01/15 11:26:36;;;;;;;10.38;2.80;;;2.60;99.90;;;;;;5070349;28;20452;-65
2024/01/15 11:29:07;;;;;;;8.40;2.67;;;2.50;99.90;;;;;;5071301;28;20423;-65
2024/01/15 11:31:38;;;;;;;7.05;2.78;;;2.50;99.90;;;;;;5066071;28;20423;-65
2024/01/15 11:34:05;;;;;;;8.30;2.50;;;2.40;99.90;;;;;;5072553;28;20501;-65
2024/01/15 11:36:49;;;;;;;7.65;2.55;;;2.40;99.90;;;;;;5074403;28;20411;-65
2024/01/15 11:39:27;;;;;;;6.93;2.70;;;2.30;99.90;;;;;;5068988;28;20510;-65
2024/01/15 11:41:55;;;;;;;8.38;2.40;;;2.30;99.90;;;;;;5041616;28;20453;-65
2024/01/15 11:44:21;;;;;;;8.13;2.60;;;2.30;99.90;;;;;;5082323;28;20401;-65
2024/01/15 11:46:58;;;;;;;7.10;2.70;;;2.30;99.90;;;;;;5070372;28;20463;-65
2024/01/15 11:49:52;;;;;;;7.68;3.20;;;2.30;99.90;;;;;;5068866;28;20461;-65
2024/01/15 11:52:20;;;;;;;5.93;2.85;;;2.40;99.90;;;;;;5067443;28;20858;-65
2024/01/15 11:54:59;;;;;;;8.73;3.95;;;2.40;99.90;;;;;;5066038;28;20418;-65
2024/01/15 11:57:39;;;;;;;5.57;2.20;;;2.40;99.90;;;;;;5059409;28;20441;-65
2024/01/15 12:00:08;;;;;;;5.60;1.85;;;2.40;99.90;;;;;;5067539;28;20434;-65
2024/01/15 12:02:34;;;;;;;5.25;2.20;;;2.40;99.90;;;;;;5047984;28;20424;-65
2024/01/15 12:05:00;;;;;;;4.88;2.08;;;2.50;99.90;;;;;;5062266;28;20492;-65
2024/01/15 12:07:26;;;;;;;8.10;3.60;;;2.60;99.90;;;;;;5035147;28;20403;-65
2024/01/15 12:09:51;;;;;;;6.97;2.33;;;2.70;99.90;;;;;;5051854;28;20407;-65
2024/01/15 12:12:48;;;;;;;6.77;2.73;;;2.70;99.90;;;;;;5067704;28;20415;-65
2024/01/15 12:15:15;;;;;;;6.88;3.08;;;2.70;99.90;;;;;;5060672;28;20912;-65
2024/01/15 12:17:40;;;;;;;7.55;2.78;;;2.60;99.90;;;;;;5102325;28;20406;-65
2024/01/15 12:20:06;;;;;;;7.25;2.22;;;2.60;99.90;;;;;;5068365;28;20419;-65
2024/01/15 12:22:33;;;;;;;4.82;1.60;;;2.50;99.90;;;;;;5050749;28;20534;-64
2024/01/15 12:24:58;;;;;;;4.25;1.92;;;2.30;99.90;;;;;;5069385;28;20399;-65
2024/01/15 12:27:25;;;;;;;5.95;1.92;;;2.10;99.90;;;;;;5050571;28;20429;-65
2024/01/15 12:29:52;;;;;;;4.07;1.50;;;2.00;99.90;;;;;;5068424;28;20439;-65
2024/01/15 12:32:19;;;;;;;2.97;1.48;;;2.00;99.90;;;;;;5067444;28;20699;-65
2024/01/15 12:34:44;;;;;;;4.33;1.87;;;1.80;99.90;;;;;;5069675;28;20630;-65
2024/01/15 12:37:12;;;;;;;6.60;2.03;;;1.70;99.90;;;;;;5067590;28;20407;-65
2024/01/15 12:39:37;;;;;;;4.43;1.80;;;1.60;99.90;;;;;;5067458;28;20407;-65
2024/01/15 12:42:05;;;;;;;5.47;2.30;;;1.40;99.90;;;;;;5068168;28;20480;-65
2024/01/15 12:44:31;;;;;;;4.75;2.08;;;1.40;99.90;;;;;;5068053;28;20956;-65
2024/01/15 12:46:57;;;;;;;5.82;1.70;;;1.30;99.90;;;;;;5050283;28;20407;-64